createdAt,value
2023-02-05T00:00:01.549Z,100285.83
2023-02-05T00:02:31.788Z,100280.61
2023-02-05T00:05:01.434Z,100282.21
2023-02-05T00:07:30.352Z,100281.08
2023-02-05T00:09:59.596Z,100286.74
2023-02-05T00:12:29.922Z,100284.75
2023-02-05T00:14:59.087Z,100284.45
2023-02-05T00:17:31.943Z,100280.91
2023-02-05T00:20:02.184Z,100281.51
2023-02-05T00:22:32.320Z,100287.05
2023-02-05T00:25:01.285Z,100287.91
2023-02-05T00:27:31.821Z,100293.02
2023-02-05T00:30:00.524Z,100293.39
2023-02-05T00:32:29.835Z,100295.88
2023-02-05T00:34:58.428Z,100296.39
2023-02-05T00:37:27.080Z,100299.53
2023-02-05T00:39:58.607Z,100293.33
2023-02-05T00:42:28.766Z,100294.59
2023-02-05T00:44:58.515Z,100296.09
2023-02-05T00:47:28.032Z,100295.42
2023-02-05T00:49:56.868Z,100297.33
2023-02-05T00:52:25.762Z,100290.05
2023-02-05T00:54:57.450Z,100296.27
2023-02-05T00:57:27.029Z,100298.32
2023-02-05T00:59:58.771Z,100297.90
2023-02-05T01:02:29.459Z,100295.14
2023-02-05T01:04:58.599Z,100295.73
2023-02-05T01:07:28.873Z,100294.69
2023-02-05T01:09:59.425Z,100297.55
2023-02-05T01:12:29.432Z,100295.71
2023-02-05T01:15:06.224Z,100296.35
2023-02-05T01:17:36.624Z,100297.75
2023-02-05T01:20:09.688Z,100301.30
2023-02-05T01:22:40.779Z,100300.16
2023-02-05T01:25:09.721Z,100300.86
2023-02-05T01:27:39.720Z,100301.54
2023-02-05T01:30:12.092Z,100299.50
2023-02-05T01:32:43.832Z,100306.92
2023-02-05T01:35:12.472Z,100308.21
2023-02-05T01:37:43.111Z,100307.52
2023-02-05T01:40:16.248Z,100306.23
2023-02-05T01:42:47.269Z,100303.94
2023-02-05T01:45:23.886Z,100307.23
2023-02-05T01:48:01.351Z,100308.34
2023-02-05T01:50:39.355Z,100309.85
2023-02-05T01:53:11.649Z,100309.27
2023-02-05T01:55:48.583Z,100307.91
2023-02-05T01:58:18.332Z,100313.09
2023-02-05T02:00:47.946Z,100309.96
2023-02-05T02:03:17.591Z,100309.91
2023-02-05T02:05:47.093Z,100308.48
2023-02-05T02:08:16.817Z,100308.38
2023-02-05T02:10:47.713Z,100311.40
2023-02-05T02:13:18.288Z,100309.85
2023-02-05T02:15:49.853Z,100308.60
2023-02-05T02:18:26.539Z,100310.44
2023-02-05T02:21:20.866Z,100310.27
2023-02-05T02:24:11.443Z,100311.13
2023-02-05T02:27:12.492Z,100314.09
2023-02-05T02:30:09.619Z,100316.44
2023-02-05T02:32:39.138Z,100317.49
2023-02-05T02:35:14.258Z,100316.12
2023-02-05T02:37:48.708Z,100314.72
2023-02-05T02:40:27.657Z,100314.15
2023-02-05T02:43:18.067Z,100314.67
2023-02-05T02:45:50.815Z,100315.22
2023-02-05T02:48:23.292Z,100312.29
2023-02-05T02:50:54.044Z,100315.13
2023-02-05T02:53:30.702Z,100311.64
2023-02-05T02:56:00.758Z,100305.70
2023-02-05T02:58:33.983Z,100304.81
2023-02-05T03:01:03.112Z,100308.38
2023-02-05T03:03:32.860Z,100313.67
2023-02-05T03:06:06.215Z,100315.64
2023-02-05T03:08:38.964Z,100313.48
2023-02-05T03:11:12.433Z,100313.27
2023-02-05T03:13:43.141Z,100315.36
2023-02-05T03:16:14.376Z,100315.92
2023-02-05T03:18:43.558Z,100319.96
2023-02-05T03:21:17.310Z,100320.68
2023-02-05T03:23:48.409Z,100321.04
2023-02-05T03:26:36.741Z,100320.46
2023-02-05T03:29:15.071Z,100318.66
2023-02-05T03:32:19.276Z,100321.32
2023-02-05T03:34:53.665Z,100319.06
2023-02-05T03:37:45.166Z,100323.37
2023-02-05T03:40:32.773Z,100322.80
2023-02-05T03:43:15.540Z,100319.27
2023-02-05T03:46:05.693Z,100317.52
2023-02-05T03:48:57.286Z,100324.15
2023-02-05T03:51:46.814Z,100329.13
2023-02-05T03:54:22.345Z,100330.98
2023-02-05T03:56:55.493Z,100330.58
2023-02-05T03:59:26.495Z,100333.17
2023-02-05T04:01:55.996Z,100331.20
2023-02-05T04:04:25.845Z,100331.34
2023-02-05T04:06:57.643Z,100335.60
2023-02-05T04:09:26.744Z,100343.47
2023-02-05T04:11:57.095Z,100343.43
2023-02-05T04:14:26.619Z,100340.46
2023-02-05T04:16:59.725Z,100342.16
2023-02-05T04:19:30.190Z,100345.40
2023-02-05T04:22:01.638Z,100348.88
2023-02-05T04:24:35.030Z,100351.67
2023-02-05T04:27:04.702Z,100350.27
2023-02-05T04:29:34.314Z,100349.61
2023-02-05T04:32:04.553Z,100347.83
2023-02-05T04:34:33.925Z,100342.86
2023-02-05T04:37:05.130Z,100343.77
2023-02-05T04:39:35.225Z,100347.90
2023-02-05T04:42:04.185Z,100351.88
2023-02-05T04:44:38.188Z,100353.27
2023-02-05T04:47:08.880Z,100357.31
2023-02-05T04:49:41.962Z,100356.25
2023-02-05T04:52:11.785Z,100360.73
2023-02-05T04:54:40.629Z,100366.16
2023-02-05T04:57:10.491Z,100365.39
2023-02-05T04:59:39.742Z,100369.99
2023-02-05T05:02:09.453Z,100373.64
2023-02-05T05:04:38.709Z,100379.79
2023-02-05T05:07:10.557Z,100377.83
2023-02-05T05:09:40.085Z,100380.31
2023-02-05T05:12:10.541Z,100381.63
2023-02-05T05:14:41.548Z,100382.73
2023-02-05T05:17:15.742Z,100387.71
2023-02-05T05:19:46.312Z,100390.48
2023-02-05T05:22:17.711Z,100390.70
2023-02-05T05:24:47.641Z,100391.20
2023-02-05T05:27:19.061Z,100392.64
2023-02-05T05:29:48.129Z,100397.91
2023-02-05T05:32:17.649Z,100397.43
2023-02-05T05:34:48.567Z,100398.92
2023-02-05T05:37:19.348Z,100399.09
2023-02-05T05:40:07.930Z,100402.21
2023-02-05T05:42:56.907Z,100404.30
2023-02-05T05:45:27.395Z,100409.76
2023-02-05T05:47:58.272Z,100413.21
2023-02-05T05:50:28.555Z,100414.34
2023-02-05T05:53:03.002Z,100416.39
2023-02-05T05:55:33.292Z,100416.36
2023-02-05T05:58:04.199Z,100416.77
2023-02-05T06:00:35.076Z,100410.65
2023-02-05T06:03:13.991Z,100411.48
2023-02-05T06:05:45.074Z,100413.49
2023-02-05T06:08:16.968Z,100414.08
2023-02-05T06:10:47.108Z,100413.69
2023-02-05T06:13:19.041Z,100414.65
2023-02-05T06:15:52.677Z,100417.53
2023-02-05T06:18:25.182Z,100421.85
2023-02-05T06:20:56.658Z,100422.99
2023-02-05T06:23:27.836Z,100421.51
2023-02-05T06:25:57.611Z,100426.23
2023-02-05T06:28:27.153Z,100426.87
2023-02-05T06:30:56.184Z,100430.55
2023-02-05T06:33:25.235Z,100431.84
2023-02-05T06:35:54.499Z,100430.27
2023-02-05T06:38:23.813Z,100437.23
2023-02-05T06:40:53.902Z,100443.58
2023-02-05T06:43:22.756Z,100447.48
2023-02-05T06:45:52.316Z,100454.46
2023-02-05T06:48:23.245Z,100457.38
2023-02-05T06:50:52.521Z,100461.08
2023-02-05T06:53:21.695Z,100462.55
2023-02-05T06:55:50.911Z,100458.95
2023-02-05T06:58:19.569Z,100462.09
2023-02-05T07:00:48.472Z,100465.73
2023-02-05T07:03:17.207Z,100467.45
2023-02-05T07:05:52.106Z,100464.50
2023-02-05T07:08:20.690Z,100469.38
2023-02-05T07:10:53.019Z,100468.66
2023-02-05T07:13:24.828Z,100471.45
2023-02-05T07:15:54.901Z,100471.38
2023-02-05T07:18:24.794Z,100472.73
2023-02-05T07:20:57.842Z,100478.70
2023-02-05T07:23:27.136Z,100484.56
2023-02-05T07:25:56.084Z,100482.50
2023-02-05T07:28:25.171Z,100486.75
2023-02-05T07:30:56.019Z,100489.02
2023-02-05T07:33:26.221Z,100492.09
2023-02-05T07:35:55.770Z,100495.61
2023-02-05T07:38:27.668Z,100493.02
2023-02-05T07:40:56.591Z,100487.13
2023-02-05T07:43:26.245Z,100493.23
2023-02-05T07:45:59.264Z,100492.66
2023-02-05T07:48:28.071Z,100493.81
2023-02-05T07:50:59.983Z,100492.16
2023-02-05T07:53:30.582Z,100493.17
2023-02-05T07:56:04.271Z,100492.60
2023-02-05T07:58:34.444Z,100497.25
2023-02-05T08:01:04.286Z,100501.45
2023-02-05T08:03:33.574Z,100504.41
2023-02-05T08:06:07.415Z,100502.71
2023-02-05T08:08:36.442Z,100506.45
2023-02-05T08:11:06.669Z,100506.02
2023-02-05T08:13:36.623Z,100508.00
2023-02-05T08:16:10.486Z,100514.98
2023-02-05T08:18:40.208Z,100521.67
2023-02-05T08:21:08.949Z,100523.05
2023-02-05T08:23:37.742Z,100517.00
2023-02-05T08:26:06.742Z,100527.52
2023-02-05T08:28:37.052Z,100525.27
2023-02-05T08:31:17.819Z,100526.94
2023-02-05T08:33:49.861Z,100526.86
2023-02-05T08:36:20.567Z,100524.39
2023-02-05T08:38:50.210Z,100520.00
2023-02-05T08:41:20.081Z,100514.01
2023-02-05T08:43:50.917Z,100511.50
2023-02-05T08:46:22.170Z,100510.88
2023-02-05T08:48:53.431Z,100514.89
2023-02-05T08:51:23.348Z,100515.38
2023-02-05T08:53:52.175Z,100513.58
2023-02-05T08:56:21.813Z,100517.31
2023-02-05T08:58:51.276Z,100521.48
2023-02-05T09:01:21.111Z,100525.13
2023-02-05T09:03:50.727Z,100527.91
2023-02-05T09:06:19.683Z,100528.44
2023-02-05T09:08:49.311Z,100525.98
2023-02-05T09:11:21.914Z,100528.08
2023-02-05T09:13:51.540Z,100527.58
2023-02-05T09:16:20.449Z,100528.80
2023-02-05T09:18:50.572Z,100522.41
2023-02-05T09:21:19.888Z,100523.59
2023-02-05T09:23:48.429Z,100522.88
2023-02-05T09:26:17.580Z,100526.61
2023-02-05T09:28:46.918Z,100519.39
2023-02-05T09:31:18.247Z,100517.02
2023-02-05T09:33:48.077Z,100515.67
2023-02-05T09:36:22.662Z,100514.06
2023-02-05T09:39:02.012Z,100520.74
2023-02-05T09:41:51.071Z,100521.36
2023-02-05T09:44:39.234Z,100512.59
2023-02-05T09:47:24.416Z,100516.04
2023-02-05T09:49:59.083Z,100521.54
2023-02-05T09:52:32.083Z,100521.21
2023-02-05T09:55:05.162Z,100522.56
2023-02-05T09:57:36.497Z,100520.09
2023-02-05T10:00:06.612Z,100518.17
2023-02-05T10:02:50.736Z,100513.91
2023-02-05T10:05:19.719Z,100515.78
2023-02-05T10:08:06.215Z,100520.20
2023-02-05T10:10:46.129Z,100521.82
2023-02-05T10:13:26.338Z,100523.81
2023-02-05T10:16:16.343Z,100524.24
2023-02-05T10:19:10.518Z,100529.27
2023-02-05T10:22:12.198Z,100528.91
2023-02-05T10:24:52.728Z,100529.35
2023-02-05T10:27:29.114Z,100532.36
2023-02-05T10:30:14.142Z,100533.85
2023-02-05T10:32:55.998Z,100532.89
2023-02-05T10:35:46.827Z,100529.43
2023-02-05T10:38:25.099Z,100534.23
2023-02-05T10:41:12.638Z,100530.19
2023-02-05T10:43:54.418Z,100526.38
2023-02-05T10:46:23.111Z,100523.45
2023-02-05T10:48:57.512Z,100521.88
2023-02-05T10:51:38.627Z,100519.95
2023-02-05T10:54:15.578Z,100521.63
2023-02-05T10:56:45.015Z,100523.63
2023-02-05T10:59:26.988Z,100528.98
2023-02-05T11:02:03.369Z,100525.30
2023-02-05T11:05:00.725Z,100531.13
2023-02-05T11:07:50.784Z,100536.73
2023-02-05T11:10:21.949Z,100533.81
2023-02-05T11:13:01.821Z,100536.23
2023-02-05T11:15:32.684Z,100534.94
2023-02-05T11:18:06.932Z,100537.98
2023-02-05T11:20:38.380Z,100539.14
2023-02-05T11:23:22.316Z,100534.31
2023-02-05T11:25:54.900Z,100535.60
2023-02-05T11:28:24.781Z,100531.15
2023-02-05T11:30:54.045Z,100533.64
2023-02-05T11:33:23.334Z,100531.02
2023-02-05T11:36:03.545Z,100539.71
2023-02-05T11:38:44.734Z,100539.98
2023-02-05T11:41:15.722Z,100537.98
2023-02-05T11:43:51.421Z,100539.95
2023-02-05T11:46:22.923Z,100543.40
2023-02-05T11:49:02.184Z,100543.04
2023-02-05T11:51:44.997Z,100541.95
2023-02-05T11:54:20.635Z,100546.27
2023-02-05T11:57:24.082Z,100546.32
2023-02-05T11:59:57.465Z,100546.49
2023-02-05T12:02:31.620Z,100546.46
2023-02-05T12:05:06.464Z,100552.81
2023-02-05T12:07:45.476Z,100556.08
2023-02-05T12:10:44.549Z,100557.09
2023-02-05T12:13:36.010Z,100557.73
2023-02-05T12:16:50.534Z,100562.45
2023-02-05T12:19:27.398Z,100563.56
2023-02-05T12:22:13.963Z,100563.77
2023-02-05T12:24:49.078Z,100567.45
2023-02-05T12:27:37.406Z,100567.02
2023-02-05T12:30:27.491Z,100566.16
2023-02-05T12:33:01.938Z,100568.64
2023-02-05T12:35:50.897Z,100571.46
2023-02-05T12:38:32.554Z,100575.75
2023-02-05T12:41:23.317Z,100577.02
2023-02-05T12:43:53.715Z,100579.04
2023-02-05T12:46:45.423Z,100578.14
2023-02-05T12:49:36.140Z,100577.32
2023-02-05T12:52:39.121Z,100579.27
2023-02-05T12:55:29.566Z,100580.61
2023-02-05T12:58:02.430Z,100580.50
2023-02-05T13:00:44.658Z,100583.06
2023-02-05T13:03:19.736Z,100583.14
2023-02-05T13:05:53.741Z,100582.70
2023-02-05T13:08:48.762Z,100578.55
2023-02-05T13:11:50.810Z,100584.72
2023-02-05T13:14:26.309Z,100583.34
2023-02-05T13:17:12.141Z,100584.99
2023-02-05T13:19:44.674Z,100585.81
2023-02-05T13:22:37.165Z,100587.59
2023-02-05T13:25:57.312Z,100590.70
2023-02-05T13:28:43.728Z,100593.27
2023-02-05T13:31:27.896Z,100593.28
2023-02-05T13:34:01.744Z,100596.55
2023-02-05T13:36:42.886Z,100600.14
2023-02-05T13:39:34.390Z,100600.35
2023-02-05T13:42:18.894Z,100605.90
2023-02-05T13:45:05.183Z,100603.25
2023-02-05T13:47:51.660Z,100605.08
2023-02-05T13:50:48.154Z,100609.98
2023-02-05T13:53:50.993Z,100609.99
2023-02-05T13:56:29.463Z,100613.10
2023-02-05T13:59:01.016Z,100616.88
2023-02-05T14:01:35.113Z,100617.90
2023-02-05T14:04:17.713Z,100620.13
2023-02-05T14:06:51.806Z,100617.75
2023-02-05T14:09:24.137Z,100615.94
2023-02-05T14:11:58.538Z,100621.09
2023-02-05T14:14:29.182Z,100619.04
2023-02-05T14:17:01.004Z,100614.84
2023-02-05T14:19:33.039Z,100620.09
2023-02-05T14:22:04.193Z,100624.73
2023-02-05T14:24:49.661Z,100625.57
2023-02-05T14:27:37.838Z,100621.91
2023-02-05T14:30:33.274Z,100624.45
2023-02-05T14:33:30.597Z,100624.19
2023-02-05T14:36:22.970Z,100630.91
2023-02-05T14:39:26.648Z,100636.98
2023-02-05T14:41:59.512Z,100633.82
2023-02-05T14:44:36.098Z,100636.22
2023-02-05T14:47:26.568Z,100637.93
2023-02-05T14:50:05.966Z,100638.48
2023-02-05T14:52:42.993Z,100643.94
2023-02-05T14:55:14.447Z,100643.02
2023-02-05T14:57:58.327Z,100644.34
2023-02-05T15:00:30.095Z,100648.81
2023-02-05T15:03:13.697Z,100646.23
2023-02-05T15:05:47.495Z,100652.45
2023-02-05T15:08:36.282Z,100652.46
2023-02-05T15:11:13.599Z,100654.54
2023-02-05T15:13:43.579Z,100657.67
2023-02-05T15:16:13.437Z,100655.93
2023-02-05T15:18:59.367Z,100662.38
2023-02-05T15:21:41.061Z,100660.73
2023-02-05T15:24:21.714Z,100662.38
2023-02-05T15:26:52.811Z,100665.14
2023-02-05T15:29:27.154Z,100665.29
2023-02-05T15:31:59.572Z,100667.63
2023-02-05T15:34:33.407Z,100669.08
2023-02-05T15:37:18.958Z,100671.21
2023-02-05T15:39:55.793Z,100675.04
2023-02-05T15:42:31.857Z,100673.07
2023-02-05T15:45:18.213Z,100674.58
2023-02-05T15:48:19.188Z,100669.70
2023-02-05T15:50:52.482Z,100675.02
2023-02-05T15:53:50.834Z,100676.47
2023-02-05T15:56:29.687Z,100674.23
2023-02-05T15:59:12.704Z,100676.88
2023-02-05T16:02:00.525Z,100676.62
2023-02-05T16:04:32.265Z,100683.75
2023-02-05T16:07:05.140Z,100683.15
2023-02-05T16:09:36.118Z,100687.63
2023-02-05T16:12:13.193Z,100688.23
2023-02-05T16:14:42.297Z,100686.79
2023-02-05T16:17:19.849Z,100687.05
2023-02-05T16:19:53.523Z,100686.60
2023-02-05T16:22:44.611Z,100681.14
2023-02-05T16:25:24.281Z,100681.64
2023-02-05T16:27:55.234Z,100686.45
2023-02-05T16:30:34.535Z,100687.20
2023-02-05T16:33:04.674Z,100687.81
2023-02-05T16:35:36.467Z,100687.81
2023-02-05T16:38:09.556Z,100684.72
2023-02-05T16:40:46.993Z,100689.02
2023-02-05T16:43:36.353Z,100688.70
2023-02-05T16:46:08.611Z,100687.78
2023-02-05T16:48:39.257Z,100686.27
2023-02-05T16:51:34.139Z,100686.10
2023-02-05T16:54:22.422Z,100686.08
2023-02-05T16:56:56.959Z,100685.27
2023-02-05T16:59:29.890Z,100683.77
2023-02-05T17:02:03.838Z,100686.85
2023-02-05T17:04:37.280Z,100690.17
2023-02-05T17:07:16.915Z,100687.01
2023-02-05T17:09:46.887Z,100682.48
2023-02-05T17:12:20.511Z,100686.19
2023-02-05T17:15:03.695Z,100685.88
2023-02-05T17:17:33.753Z,100687.13
2023-02-05T17:20:04.759Z,100687.18
2023-02-05T17:22:35.020Z,100694.90
2023-02-05T17:25:06.284Z,100696.04
2023-02-05T17:27:39.735Z,100696.67
2023-02-05T17:30:15.262Z,100698.21
2023-02-05T17:32:47.022Z,100697.48
2023-02-05T17:35:17.441Z,100699.38
2023-02-05T17:37:46.069Z,100702.48
2023-02-05T17:40:18.004Z,100703.31
2023-02-05T17:42:47.455Z,100707.73
2023-02-05T17:45:24.510Z,100710.79
2023-02-05T17:47:54.736Z,100713.05
2023-02-05T17:50:23.790Z,100715.31
2023-02-05T17:52:52.736Z,100714.47
2023-02-05T17:55:23.494Z,100717.52
2023-02-05T17:57:52.479Z,100721.78
2023-02-05T18:00:23.833Z,100725.44
2023-02-05T18:02:53.582Z,100728.25
2023-02-05T18:05:24.297Z,100731.56
2023-02-05T18:08:00.396Z,100729.91
2023-02-05T18:10:34.764Z,100723.75
2023-02-05T18:13:05.045Z,100727.08
2023-02-05T18:15:33.917Z,100726.38
2023-02-05T18:18:04.024Z,100725.98
2023-02-05T18:20:35.370Z,100730.00
2023-02-05T18:23:04.986Z,100727.98
2023-02-05T18:25:34.321Z,100734.48
2023-02-05T18:28:04.668Z,100736.89
2023-02-05T18:30:34.821Z,100735.54
2023-02-05T18:33:04.911Z,100732.77
2023-02-05T18:35:33.911Z,100732.92
2023-02-05T18:38:03.759Z,100733.02
2023-02-05T18:40:38.889Z,100734.98
2023-02-05T18:43:08.696Z,100735.23
2023-02-05T18:45:41.709Z,100738.04
2023-02-05T18:48:13.060Z,100735.25
2023-02-05T18:50:42.363Z,100738.43
2023-02-05T18:53:14.610Z,100734.69
2023-02-05T18:55:44.075Z,100735.55
2023-02-05T18:58:13.628Z,100733.39
2023-02-05T19:00:44.314Z,100730.40
2023-02-05T19:03:15.604Z,100725.56
2023-02-05T19:05:45.214Z,100726.50
2023-02-05T19:08:14.996Z,100727.71
2023-02-05T19:10:44.186Z,100726.80
2023-02-05T19:13:15.111Z,100725.89
2023-02-05T19:15:45.068Z,100727.50
2023-02-05T19:18:15.461Z,100732.46
2023-02-05T19:20:46.118Z,100730.84
2023-02-05T19:23:16.191Z,100728.87
2023-02-05T19:25:46.920Z,100729.89
2023-02-05T19:28:20.151Z,100729.88
2023-02-05T19:30:49.757Z,100725.92
2023-02-05T19:33:19.790Z,100728.87
2023-02-05T19:35:49.516Z,100728.06
2023-02-05T19:38:21.630Z,100731.39
2023-02-05T19:40:51.248Z,100731.70
2023-02-05T19:43:21.071Z,100730.29
2023-02-05T19:45:51.076Z,100727.84
2023-02-05T19:48:21.107Z,100735.13
2023-02-05T19:50:49.823Z,100733.41
2023-02-05T19:53:19.359Z,100738.23
2023-02-05T19:55:51.517Z,100738.17
2023-02-05T19:58:21.247Z,100742.45
2023-02-05T20:00:51.007Z,100740.64
2023-02-05T20:03:20.211Z,100743.02
2023-02-05T20:05:49.132Z,100746.23
2023-02-05T20:08:18.285Z,100747.55
2023-02-05T20:10:46.994Z,100751.83
2023-02-05T20:13:16.848Z,100749.55
2023-02-05T20:15:45.957Z,100752.52
2023-02-05T20:18:15.817Z,100753.53
2023-02-05T20:20:46.655Z,100754.26
2023-02-05T20:23:17.344Z,100759.18
2023-02-05T20:25:52.861Z,100756.16
2023-02-05T20:28:22.584Z,100757.59
2023-02-05T20:31:10.583Z,100758.81
2023-02-05T20:33:39.631Z,100761.69
2023-02-05T20:36:13.695Z,100758.55
2023-02-05T20:38:43.287Z,100759.63
2023-02-05T20:41:15.441Z,100760.92
2023-02-05T20:43:44.909Z,100756.70
2023-02-05T20:46:14.544Z,100760.11
2023-02-05T20:48:44.600Z,100760.09
2023-02-05T20:51:15.933Z,100765.04
2023-02-05T20:53:45.232Z,100771.63
2023-02-05T20:56:19.084Z,100771.45
2023-02-05T20:58:49.733Z,100768.67
2023-02-05T21:01:22.666Z,100771.70
2023-02-05T21:03:55.847Z,100779.34
2023-02-05T21:06:26.699Z,100778.98
2023-02-05T21:08:56.435Z,100773.59
2023-02-05T21:11:26.524Z,100785.17
2023-02-05T21:13:56.577Z,100782.04
2023-02-05T21:16:26.492Z,100787.77
2023-02-05T21:18:56.097Z,100784.06
2023-02-05T21:21:29.386Z,100778.15
2023-02-05T21:24:01.561Z,100786.41
2023-02-05T21:26:37.364Z,100792.02
2023-02-05T21:29:10.641Z,100795.61
2023-02-05T21:31:42.184Z,100796.13
2023-02-05T21:34:16.191Z,100797.16
2023-02-05T21:36:46.058Z,100796.34
2023-02-05T21:39:16.365Z,100803.67
2023-02-05T21:41:47.768Z,100805.45
2023-02-05T21:44:19.149Z,100804.97
2023-02-05T21:46:49.431Z,100804.42
2023-02-05T21:49:19.032Z,100805.02
2023-02-05T21:51:48.947Z,100807.30
2023-02-05T21:54:17.623Z,100801.62
2023-02-05T21:56:46.816Z,100805.32
2023-02-05T21:59:16.682Z,100812.03
2023-02-05T22:01:46.843Z,100807.79
2023-02-05T22:04:16.995Z,100813.20
2023-02-05T22:06:46.023Z,100813.69
2023-02-05T22:09:17.838Z,100813.70
2023-02-05T22:11:49.391Z,100816.41
2023-02-05T22:14:18.469Z,100814.66
2023-02-05T22:16:46.895Z,100813.15
2023-02-05T22:19:20.437Z,100817.14
2023-02-05T22:21:51.097Z,100819.86
2023-02-05T22:24:25.394Z,100817.89
2023-02-05T22:26:55.078Z,100818.36
2023-02-05T22:29:26.208Z,100816.10
2023-02-05T22:31:56.632Z,100821.13
2023-02-05T22:34:26.100Z,100820.56
2023-02-05T22:36:55.510Z,100828.67
2023-02-05T22:39:24.440Z,100829.16
2023-02-05T22:41:53.316Z,100826.08
2023-02-05T22:44:23.052Z,100825.27
2023-02-05T22:46:51.560Z,100828.16
2023-02-05T22:49:21.273Z,100832.65
2023-02-05T22:51:51.792Z,100832.60
2023-02-05T22:54:21.441Z,100832.85
2023-02-05T22:56:51.236Z,100841.80
2023-02-05T22:59:21.053Z,100847.41
2023-02-05T23:01:49.675Z,100847.98
2023-02-05T23:04:18.167Z,100851.02
2023-02-05T23:06:47.886Z,100850.98
2023-02-05T23:09:18.074Z,100852.02
2023-02-05T23:11:49.061Z,100855.07
2023-02-05T23:14:19.720Z,100852.16
2023-02-05T23:16:50.579Z,100856.15
2023-02-05T23:19:20.518Z,100856.30
2023-02-05T23:21:49.993Z,100856.29
2023-02-05T23:24:19.295Z,100861.41
2023-02-05T23:26:51.004Z,100861.54
2023-02-05T23:29:19.964Z,100867.97
2023-02-05T23:31:51.519Z,100870.97
2023-02-05T23:34:20.740Z,100875.81
2023-02-05T23:36:50.151Z,100879.34
2023-02-05T23:39:19.041Z,100884.59
2023-02-05T23:41:48.618Z,100886.27
2023-02-05T23:44:21.171Z,100886.77
2023-02-05T23:46:50.826Z,100888.77
2023-02-05T23:49:24.260Z,100878.00
2023-02-05T23:51:53.737Z,100883.31
2023-02-05T23:54:24.267Z,100880.50
2023-02-05T23:56:53.099Z,100880.45
2023-02-05T23:59:21.965Z,100885.48
